sensor_id;sensor_type;location;lat;lon;timestamp;P1;durP1;ratioP1;P2;durP2;ratioP2
20000;SDS011;10161;41.188;-8.642;2023-03-01T00:02:08;15.40;;;9.63;;
20000;SDS011;10161;41.188;-8.642;2023-03-01T00:04:36;14.73;;;8.93;;
20000;SDS011;10161;41.188;-8.642;2023-03-01T00:07:03;18.97;;;8.97;;
20000;SDS011;10161;41.188;-8.642;2023-03-01T00:09:30;14.47;;;9.17;;
20000;SDS011;10161;41.188;-8.642;2023-03-01T00:11:57;14.50;;;9.43;;
20000;SDS011;10161;41.188;-8.642;2023-03-01T00:14:24;12.80;;;9.23;;
20000;SDS011;10161;41.188;-8.642;2023-03-01T00:16:54;12.60;;;8.77;;
20000;SDS011;10161;41.188;-8.642;2023-03-01T00:19:21;13.90;;;8.50;;
20000;SDS011;10161;41.188;-8.642;2023-03-01T00:21:48;12.97;;;8.07;;
20000;SDS011;10161;41.188;-8.642;2023-03-01T00:24:15;12.60;;;8.70;;
20000;SDS011;10161;41.188;-8.642;2023-03-01T00:26:42;10.70;;;7.03;;
20000;SDS011;10161;41.188;-8.642;2023-03-01T00:29:10;12.60;;;7.70;;
20000;SDS011;10161;41.188;-8.642;2023-03-01T00:31:37;14.37;;;8.13;;
20000;SDS011;10161;41.188;-8.642;2023-03-01T00:34:05;11.60;;;7.13;;
20000;SDS011;10161;41.188;-8.642;2023-03-01T00:36:33;10.53;;;7.63;;
20000;SDS011;10161;41.188;-8.642;2023-03-01T00:39:02;11.13;;;7.47;;
20000;SDS011;10161;41.188;-8.642;2023-03-01T00:41:29;11.20;;;7.63;;
20000;SDS011;10161;41.188;-8.642;2023-03-01T00:43:56;12.93;;;7.70;;
20000;SDS011;10161;41.188;-8.642;2023-03-01T00:46:24;9.63;;;6.70;;
20000;SDS011;10161;41.188;-8.642;2023-03-01T00:48:53;8.77;;;6.87;;
20000;SDS011;10161;41.188;-8.642;2023-03-01T00:51:23;9.70;;;7.17;;
20000;SDS011;10161;41.188;-8.642;2023-03-01T00:53:51;12.53;;;8.13;;
20000;SDS011;10161;41.188;-8.642;2023-03-01T00:56:18;8.87;;;6.73;;
20000;SDS011;10161;41.188;-8.642;2023-03-01T00:58:45;11.97;;;7.60;;
20000;SDS011;10161;41.188;-8.642;2023-03-01T01:01:13;10.60;;;7.40;;
20000;SDS011;10161;41.188;-8.642;2023-03-01T01:03:44;10.47;;;7.80;;
20000;SDS011;10161;41.188;-8.642;2023-03-01T01:06:15;8.83;;;7.00;;
20000;SDS011;10161;41.188;-8.642;2023-03-01T01:08:44;8.80;;;6.80;;
20000;SDS011;10161;41.188;-8.642;2023-03-01T01:11:12;10.80;;;7.43;;
20000;SDS011;10161;41.188;-8.642;2023-03-01T01:13:40;11.10;;;7.60;;
20000;SDS011;10161;41.188;-8.642;2023-03-01T01:16:07;8.40;;;6.90;;
20000;SDS011;10161;41.188;-8.642;2023-03-01T01:18:34;10.27;;;7.40;;
20000;SDS011;10161;41.188;-8.642;2023-03-01T01:21:05;11.57;;;7.93;;
20000;SDS011;10161;41.188;-8.642;2023-03-01T01:23:34;13.77;;;8.50;;
20000;SDS011;10161;41.188;-8.642;2023-03-01T01:26:07;12.20;;;8.90;;
20000;SDS011;10161;41.188;-8.642;2023-03-01T01:28:35;15.50;;;9.27;;
20000;SDS011;10161;41.188;-8.642;2023-03-01T01:31:02;16.00;;;8.67;;
20000;SDS011;10161;41.188;-8.642;2023-03-01T01:33:30;15.53;;;8.90;;
20000;SDS011;10161;41.188;-8.642;2023-03-01T01:35:58;11.87;;;8.87;;
20000;SDS011;10161;41.188;-8.642;2023-03-01T01:38:25;16.50;;;7.70;;
20000;SDS011;10161;41.188;-8.642;2023-03-01T01:40:52;9.80;;;7.70;;
20000;SDS011;10161;41.188;-8.642;2023-03-01T01:43:22;11.20;;;8.67;;
20000;SDS011;10161;41.188;-8.642;2023-03-01T01:45:50;11.90;;;8.00;;
20000;SDS011;10161;41.188;-8.642;2023-03-01T01:48:18;10.07;;;7.80;;
20000;SDS011;10161;41.188;-8.642;2023-03-01T01:50:48;11.50;;;7.93;;
20000;SDS011;10161;41.188;-8.642;2023-03-01T01:53:19;18.03;;;8.97;;
20000;SDS011;10161;41.188;-8.642;2023-03-01T01:55:47;11.40;;;7.57;;
20000;SDS011;10161;41.188;-8.642;2023-03-01T01:58:18;10.50;;;7.63;;
20000;SDS011;10161;41.188;-8.642;2023-03-01T02:00:47;12.17;;;7.50;;
20000;SDS011;10161;41.188;-8.642;2023-03-01T02:03:16;11.73;;;6.83;;
20000;SDS011;10161;41.188;-8.642;2023-03-01T02:05:46;7.17;;;5.40;;
20000;SDS011;10161;41.188;-8.642;2023-03-01T02:08:17;8.83;;;6.37;;
20000;SDS011;10161;41.188;-8.642;2023-03-01T02:10:45;9.50;;;6.30;;
20000;SDS011;10161;41.188;-8.642;2023-03-01T02:13:13;7.33;;;5.60;;
20000;SDS011;10161;41.188;-8.642;2023-03-01T02:15:40;6.30;;;5.30;;
20000;SDS011;10161;41.188;-8.642;2023-03-01T02:18:12;9.83;;;5.37;;
20000;SDS011;10161;41.188;-8.642;2023-03-01T02:20:43;7.10;;;5.20;;
20000;SDS011;10161;41.188;-8.642;2023-03-01T02:23:14;9.07;;;5.73;;
20000;SDS011;10161;41.188;-8.642;2023-03-01T02:25:44;7.00;;;5.40;;
20000;SDS011;10161;41.188;-8.642;2023-03-01T02:28:21;5.57;;;4.43;;
20000;SDS011;10161;41.188;-8.642;2023-03-01T02:30:51;8.33;;;5.40;;
20000;SDS011;10161;41.188;-8.642;2023-03-01T02:33:38;5.87;;;4.07;;
20000;SDS011;10161;41.188;-8.642;2023-03-01T02:36:06;7.13;;;4.80;;
20000;SDS011;10161;41.188;-8.642;2023-03-01T02:38:36;4.57;;;3.70;;
20000;SDS011;10161;41.188;-8.642;2023-03-01T02:41:03;6.17;;;4.37;;
20000;SDS011;10161;41.188;-8.642;2023-03-01T02:43:35;8.73;;;4.10;;
20000;SDS011;10161;41.188;-8.642;2023-03-01T02:46:03;6.33;;;4.17;;
20000;SDS011;10161;41.188;-8.642;2023-03-01T02:48:39;3.90;;;3.50;;
20000;SDS011;10161;41.188;-8.642;2023-03-01T02:51:09;5.97;;;4.00;;
20000;SDS011;10161;41.188;-8.642;2023-03-01T02:53:39;6.20;;;4.67;;
20000;SDS011;10161;41.188;-8.642;2023-03-01T02:56:10;4.50;;;3.93;;
20000;SDS011;10161;41.188;-8.642;2023-03-01T02:58:40;4.57;;;3.77;;
20000;SDS011;10161;41.188;-8.642;2023-03-01T03:01:10;5.43;;;3.97;;
20000;SDS011;10161;41.188;-8.642;2023-03-01T03:03:38;5.70;;;4.33;;
20000;SDS011;10161;41.188;-8.642;2023-03-01T03:06:06;5.70;;;3.73;;
20000;SDS011;10161;41.188;-8.642;2023-03-01T03:08:33;4.30;;;3.80;;
20000;SDS011;10161;41.188;-8.642;2023-03-01T03:11:00;6.87;;;4.20;;
20000;SDS011;10161;41.188;-8.642;2023-03-01T03:13:28;6.93;;;3.87;;
20000;SDS011;10161;41.188;-8.642;2023-03-01T03:15:56;5.20;;;3.60;;
20000;SDS011;10161;41.188;-8.642;2023-03-01T03:18:24;5.33;;;3.77;;
20000;SDS011;10161;41.188;-8.642;2023-03-01T03:20:53;6.37;;;4.10;;
20000;SDS011;10161;41.188;-8.642;2023-03-01T03:23:22;4.50;;;3.03;;
20000;SDS011;10161;41.188;-8.642;2023-03-01T03:25:49;5.90;;;3.57;;
20000;SDS011;10161;41.188;-8.642;2023-03-01T03:28:16;4.70;;;3.20;;
20000;SDS011;10161;41.188;-8.642;2023-03-01T03:30:44;5.13;;;3.67;;
20000;SDS011;10161;41.188;-8.642;2023-03-01T03:33:16;4.67;;;3.60;;
20000;SDS011;10161;41.188;-8.642;2023-03-01T03:35:44;4.27;;;3.40;;
20000;SDS011;10161;41.188;-8.642;2023-03-01T03:38:12;6.47;;;4.13;;
20000;SDS011;10161;41.188;-8.642;2023-03-01T03:40:46;4.20;;;3.37;;
20000;SDS011;10161;41.188;-8.642;2023-03-01T03:43:15;4.43;;;3.90;;
20000;SDS011;10161;41.188;-8.642;2023-03-01T03:45:43;7.13;;;4.10;;
20000;SDS011;10161;41.188;-8.642;2023-03-01T03:48:11;6.13;;;4.10;;
20000;SDS011;10161;41.188;-8.642;2023-03-01T03:50:40;4.83;;;3.23;;
20000;SDS011;10161;41.188;-8.642;2023-03-01T03:53:08;8.27;;;3.77;;
20000;SDS011;10161;41.188;-8.642;2023-03-01T03:55:36;5.43;;;3.50;;
20000;SDS011;10161;41.188;-8.642;2023-03-01T03:58:05;6.43;;;3.20;;
20000;SDS011;10161;41.188;-8.642;2023-03-01T04:00:33;3.93;;;3.43;;
20000;SDS011;10161;41.188;-8.642;2023-03-01T04:03:01;7.83;;;3.60;;
20000;SDS011;10161;41.188;-8.642;2023-03-01T04:05:29;5.20;;;3.10;;
20000;SDS011;10161;41.188;-8.642;2023-03-01T04:07:58;5.60;;;2.97;;
20000;SDS011;10161;41.188;-8.642;2023-03-01T04:10:33;4.40;;;2.97;;
20000;SDS011;10161;41.188;-8.642;2023-03-01T04:13:01;3.70;;;3.27;;
20000;SDS011;10161;41.188;-8.642;2023-03-01T04:15:29;4.30;;;3.70;;
20000;SDS011;10161;41.188;-8.642;2023-03-01T04:17:58;4.40;;;3.17;;
20000;SDS011;10161;41.188;-8.642;2023-03-01T04:20:26;4.60;;;3.40;;
20000;SDS011;10161;41.188;-8.642;2023-03-01T04:22:58;5.10;;;3.70;;
20000;SDS011;10161;41.188;-8.642;2023-03-01T04:25:33;3.90;;;3.10;;
20000;SDS011;10161;41.188;-8.642;2023-03-01T04:28:01;7.60;;;3.33;;
20000;SDS011;10161;41.188;-8.642;2023-03-01T04:30:28;5.27;;;3.97;;
20000;SDS011;10161;41.188;-8.642;2023-03-01T04:32:55;5.70;;;3.70;;
20000;SDS011;10161;41.188;-8.642;2023-03-01T04:35:22;7.60;;;4.33;;
20000;SDS011;10161;41.188;-8.642;2023-03-01T04:37:49;5.10;;;4.10;;
20000;SDS011;10161;41.188;-8.642;2023-03-01T04:40:18;4.77;;;3.60;;
20000;SDS011;10161;41.188;-8.642;2023-03-01T04:42:46;3.37;;;3.00;;
20000;SDS011;10161;41.188;-8.642;2023-03-01T04:45:13;4.13;;;3.40;;
20000;SDS011;10161;41.188;-8.642;2023-03-01T04:47:41;3.90;;;3.10;;
20000;SDS011;10161;41.188;-8.642;2023-03-01T04:50:09;4.20;;;3.13;;
20000;SDS011;10161;41.188;-8.642;2023-03-01T04:52:37;4.37;;;3.30;;
20000;SDS011;10161;41.188;-8.642;2023-03-01T04:55:05;3.27;;;2.90;;
20000;SDS011;10161;41.188;-8.642;2023-03-01T04:57:34;3.50;;;2.67;;
20000;SDS011;10161;41.188;-8.642;2023-03-01T05:00:02;3.97;;;3.17;;
20000;SDS011;10161;41.188;-8.642;2023-03-01T05:02:45;3.20;;;2.60;;
20000;SDS011;10161;41.188;-8.642;2023-03-01T05:05:13;4.03;;;3.17;;
20000;SDS011;10161;41.188;-8.642;2023-03-01T05:07:41;3.17;;;2.87;;
20000;SDS011;10161;41.188;-8.642;2023-03-01T05:10:08;3.60;;;3.03;;
20000;SDS011;10161;41.188;-8.642;2023-03-01T05:12:39;2.87;;;2.47;;
20000;SDS011;10161;41.188;-8.642;2023-03-01T05:15:06;4.60;;;3.00;;
20000;SDS011;10161;41.188;-8.642;2023-03-01T05:17:35;5.00;;;3.77;;
20000;SDS011;10161;41.188;-8.642;2023-03-01T05:20:02;3.63;;;3.20;;
20000;SDS011;10161;41.188;-8.642;2023-03-01T05:22:33;3.90;;;3.20;;
20000;SDS011;10161;41.188;-8.642;2023-03-01T05:25:00;4.77;;;3.70;;
20000;SDS011;10161;41.188;-8.642;2023-03-01T05:27:28;5.80;;;3.53;;
20000;SDS011;10161;41.188;-8.642;2023-03-01T05:29:58;4.00;;;3.53;;
20000;SDS011;10161;41.188;-8.642;2023-03-01T05:32:38;4.33;;;3.60;;
20000;SDS011;10161;41.188;-8.642;2023-03-01T05:35:07;4.67;;;3.93;;
20000;SDS011;10161;41.188;-8.642;2023-03-01T05:37:34;4.17;;;3.20;;
20000;SDS011;10161;41.188;-8.642;2023-03-01T05:40:01;5.10;;;3.53;;
20000;SDS011;10161;41.188;-8.642;2023-03-01T05:42:30;6.20;;;4.60;;
20000;SDS011;10161;41.188;-8.642;2023-03-01T05:44:59;7.17;;;3.90;;
20000;SDS011;10161;41.188;-8.642;2023-03-01T05:47:26;6.10;;;4.20;;
20000;SDS011;10161;41.188;-8.642;2023-03-01T05:49:53;6.50;;;4.30;;
20000;SDS011;10161;41.188;-8.642;2023-03-01T05:52:20;7.20;;;4.07;;
20000;SDS011;10161;41.188;-8.642;2023-03-01T05:54:47;5.17;;;3.93;;
20000;SDS011;10161;41.188;-8.642;2023-03-01T05:57:14;6.63;;;3.80;;
20000;SDS011;10161;41.188;-8.642;2023-03-01T05:59:41;9.63;;;4.63;;
20000;SDS011;10161;41.188;-8.642;2023-03-01T06:02:10;7.07;;;4.80;;
20000;SDS011;10161;41.188;-8.642;2023-03-01T06:04:37;6.70;;;3.93;;
20000;SDS011;10161;41.188;-8.642;2023-03-01T06:07:04;5.37;;;3.83;;
20000;SDS011;10161;41.188;-8.642;2023-03-01T06:09:31;10.10;;;4.10;;
20000;SDS011;10161;41.188;-8.642;2023-03-01T06:11:58;6.50;;;3.90;;
20000;SDS011;10161;41.188;-8.642;2023-03-01T06:14:25;5.90;;;3.67;;
20000;SDS011;10161;41.188;-8.642;2023-03-01T06:16:52;7.03;;;3.90;;
20000;SDS011;10161;41.188;-8.642;2023-03-01T06:19:21;5.20;;;3.83;;
20000;SDS011;10161;41.188;-8.642;2023-03-01T06:21:48;5.17;;;3.83;;
20000;SDS011;10161;41.188;-8.642;2023-03-01T06:24:15;4.10;;;3.20;;
20000;SDS011;10161;41.188;-8.642;2023-03-01T06:26:43;3.63;;;2.93;;
20000;SDS011;10161;41.188;-8.642;2023-03-01T06:29:10;4.50;;;3.40;;
20000;SDS011;10161;41.188;-8.642;2023-03-01T06:31:37;7.40;;;3.90;;
20000;SDS011;10161;41.188;-8.642;2023-03-01T06:34:04;5.20;;;3.40;;
20000;SDS011;10161;41.188;-8.642;2023-03-01T06:36:33;5.30;;;3.70;;
20000;SDS011;10161;41.188;-8.642;2023-03-01T06:39:00;6.87;;;3.50;;
20000;SDS011;10161;41.188;-8.642;2023-03-01T06:41:32;5.37;;;3.37;;
20000;SDS011;10161;41.188;-8.642;2023-03-01T06:43:59;3.60;;;2.90;;
20000;SDS011;10161;41.188;-8.642;2023-03-01T06:46:28;4.30;;;3.40;;
20000;SDS011;10161;41.188;-8.642;2023-03-01T06:48:56;9.50;;;3.27;;
20000;SDS011;10161;41.188;-8.642;2023-03-01T06:51:23;11.13;;;4.17;;
20000;SDS011;10161;41.188;-8.642;2023-03-01T06:53:52;5.03;;;3.50;;
20000;SDS011;10161;41.188;-8.642;2023-03-01T06:56:19;6.13;;;3.53;;
20000;SDS011;10161;41.188;-8.642;2023-03-01T06:58:46;5.10;;;3.60;;
20000;SDS011;10161;41.188;-8.642;2023-03-01T07:01:13;5.93;;;4.30;;
20000;SDS011;10161;41.188;-8.642;2023-03-01T07:03:42;8.70;;;4.30;;
20000;SDS011;10161;41.188;-8.642;2023-03-01T07:06:09;6.13;;;4.43;;
20000;SDS011;10161;41.188;-8.642;2023-03-01T07:08:36;5.37;;;4.20;;
20000;SDS011;10161;41.188;-8.642;2023-03-01T07:11:05;10.43;;;5.40;;
20000;SDS011;10161;41.188;-8.642;2023-03-01T07:13:33;8.97;;;5.57;;
20000;SDS011;10161;41.188;-8.642;2023-03-01T07:16:00;9.90;;;6.30;;
20000;SDS011;10161;41.188;-8.642;2023-03-01T07:18:27;8.73;;;5.90;;
20000;SDS011;10161;41.188;-8.642;2023-03-01T07:20:54;8.50;;;5.70;;
20000;SDS011;10161;41.188;-8.642;2023-03-01T07:23:21;9.13;;;5.70;;
20000;SDS011;10161;41.188;-8.642;2023-03-01T07:25:51;10.10;;;5.90;;
20000;SDS011;10161;41.188;-8.642;2023-03-01T07:28:21;9.93;;;5.50;;
20000;SDS011;10161;41.188;-8.642;2023-03-01T07:30:49;10.83;;;6.07;;
20000;SDS011;10161;41.188;-8.642;2023-03-01T07:33:17;9.63;;;6.57;;
20000;SDS011;10161;41.188;-8.642;2023-03-01T07:35:45;9.27;;;5.70;;
20000;SDS011;10161;41.188;-8.642;2023-03-01T07:38:12;10.30;;;5.90;;
20000;SDS011;10161;41.188;-8.642;2023-03-01T07:40:39;12.33;;;6.13;;
20000;SDS011;10161;41.188;-8.642;2023-03-01T07:43:06;10.83;;;5.90;;
20000;SDS011;10161;41.188;-8.642;2023-03-01T07:45:34;12.33;;;7.10;;
20000;SDS011;10161;41.188;-8.642;2023-03-01T07:48:02;12.60;;;6.90;;
20000;SDS011;10161;41.188;-8.642;2023-03-01T07:50:29;14.37;;;7.00;;
20000;SDS011;10161;41.188;-8.642;2023-03-01T07:52:56;9.23;;;6.07;;
20000;SDS011;10161;41.188;-8.642;2023-03-01T07:55:23;14.47;;;7.40;;
20000;SDS011;10161;41.188;-8.642;2023-03-01T07:57:50;12.10;;;6.70;;
20000;SDS011;10161;41.188;-8.642;2023-03-01T08:00:17;10.53;;;6.20;;
20000;SDS011;10161;41.188;-8.642;2023-03-01T08:02:46;8.93;;;5.90;;
20000;SDS011;10161;41.188;-8.642;2023-03-01T08:05:13;13.20;;;6.50;;
20000;SDS011;10161;41.188;-8.642;2023-03-01T08:07:40;10.83;;;4.83;;
20000;SDS011;10161;41.188;-8.642;2023-03-01T08:10:09;5.70;;;4.70;;
20000;SDS011;10161;41.188;-8.642;2023-03-01T08:12:37;10.43;;;4.30;;
20000;SDS011;10161;41.188;-8.642;2023-03-01T08:15:04;7.40;;;3.73;;
20000;SDS011;10161;41.188;-8.642;2023-03-01T08:17:32;6.77;;;3.90;;
20000;SDS011;10161;41.188;-8.642;2023-03-01T08:20:01;4.70;;;3.57;;
20000;SDS011;10161;41.188;-8.642;2023-03-01T08:22:32;7.83;;;4.00;;
20000;SDS011;10161;41.188;-8.642;2023-03-01T08:24:59;6.73;;;4.43;;
20000;SDS011;10161;41.188;-8.642;2023-03-01T08:27:26;6.00;;;3.77;;
20000;SDS011;10161;41.188;-8.642;2023-03-01T08:29:54;6.10;;;3.80;;
20000;SDS011;10161;41.188;-8.642;2023-03-01T08:32:21;11.67;;;4.37;;
20000;SDS011;10161;41.188;-8.642;2023-03-01T08:34:48;8.20;;;4.93;;
20000;SDS011;10161;41.188;-8.642;2023-03-01T08:37:17;11.30;;;4.40;;
20000;SDS011;10161;41.188;-8.642;2023-03-01T08:39:44;8.80;;;4.87;;
20000;SDS011;10161;41.188;-8.642;2023-03-01T08:42:12;9.00;;;4.53;;
20000;SDS011;10161;41.188;-8.642;2023-03-01T08:44:39;6.50;;;4.50;;
20000;SDS011;10161;41.188;-8.642;2023-03-01T08:47:07;6.70;;;4.27;;
20000;SDS011;10161;41.188;-8.642;2023-03-01T08:49:34;6.73;;;3.63;;
20000;SDS011;10161;41.188;-8.642;2023-03-01T08:52:01;7.30;;;4.30;;
20000;SDS011;10161;41.188;-8.642;2023-03-01T08:54:30;10.23;;;5.10;;
20000;SDS011;10161;41.188;-8.642;2023-03-01T08:56:57;6.27;;;4.73;;
20000;SDS011;10161;41.188;-8.642;2023-03-01T08:59:25;12.77;;;5.00;;
20000;SDS011;10161;41.188;-8.642;2023-03-01T09:01:55;6.93;;;4.60;;
20000;SDS011;10161;41.188;-8.642;2023-03-01T09:04:22;6.63;;;4.20;;
20000;SDS011;10161;41.188;-8.642;2023-03-01T09:06:49;7.17;;;4.77;;
20000;SDS011;10161;41.188;-8.642;2023-03-01T09:09:16;6.90;;;4.27;;
20000;SDS011;10161;41.188;-8.642;2023-03-01T09:11:45;5.90;;;4.27;;
20000;SDS011;10161;41.188;-8.642;2023-03-01T09:14:15;10.47;;;4.50;;
20000;SDS011;10161;41.188;-8.642;2023-03-01T09:16:42;7.57;;;4.47;;
20000;SDS011;10161;41.188;-8.642;2023-03-01T09:19:10;15.77;;;5.03;;
20000;SDS011;10161;41.188;-8.642;2023-03-01T09:21:37;7.60;;;4.70;;
20000;SDS011;10161;41.188;-8.642;2023-03-01T09:24:04;7.10;;;4.80;;
20000;SDS011;10161;41.188;-8.642;2023-03-01T09:26:32;7.33;;;5.30;;
20000;SDS011;10161;41.188;-8.642;2023-03-01T09:29:01;10.73;;;5.47;;
20000;SDS011;10161;41.188;-8.642;2023-03-01T09:31:28;7.30;;;5.00;;
20000;SDS011;10161;41.188;-8.642;2023-03-01T09:33:57;6.47;;;5.20;;
20000;SDS011;10161;41.188;-8.642;2023-03-01T09:36:24;8.10;;;5.27;;
20000;SDS011;10161;41.188;-8.642;2023-03-01T09:38:51;11.93;;;5.70;;
20000;SDS011;10161;41.188;-8.642;2023-03-01T09:41:26;8.63;;;5.57;;
20000;SDS011;10161;41.188;-8.642;2023-03-01T09:44:10;7.73;;;5.03;;
20000;SDS011;10161;41.188;-8.642;2023-03-01T09:46:40;6.37;;;4.63;;
20000;SDS011;10161;41.188;-8.642;2023-03-01T09:49:10;7.07;;;4.70;;
20000;SDS011;10161;41.188;-8.642;2023-03-01T09:51:38;10.03;;;3.80;;
20000;SDS011;10161;41.188;-8.642;2023-03-01T09:54:05;4.27;;;3.37;;
20000;SDS011;10161;41.188;-8.642;2023-03-01T09:56:36;5.90;;;3.37;;
20000;SDS011;10161;41.188;-8.642;2023-03-01T09:59:10;5.80;;;3.90;;
20000;SDS011;10161;41.188;-8.642;2023-03-01T10:01:44;5.23;;;3.60;;
20000;SDS011;10161;41.188;-8.642;2023-03-01T10:04:22;5.50;;;3.33;;
20000;SDS011;10161;41.188;-8.642;2023-03-01T10:09:48;5.30;;;3.83;;
20000;SDS011;10161;41.188;-8.642;2023-03-01T10:12:16;5.23;;;4.00;;
20000;SDS011;10161;41.188;-8.642;2023-03-01T10:14:50;4.73;;;3.40;;
20000;SDS011;10161;41.188;-8.642;2023-03-01T10:17:24;3.23;;;2.80;;
20000;SDS011;10161;41.188;-8.642;2023-03-01T10:19:54;5.03;;;3.03;;
20000;SDS011;10161;41.188;-8.642;2023-03-01T10:22:22;3.70;;;2.87;;
20000;SDS011;10161;41.188;-8.642;2023-03-01T10:24:54;5.17;;;3.40;;
20000;SDS011;10161;41.188;-8.642;2023-03-01T10:27:23;4.73;;;3.67;;
20000;SDS011;10161;41.188;-8.642;2023-03-01T10:29:55;4.30;;;2.90;;
20000;SDS011;10161;41.188;-8.642;2023-03-01T10:32:25;3.67;;;2.40;;
20000;SDS011;10161;41.188;-8.642;2023-03-01T10:34:53;3.80;;;2.80;;
20000;SDS011;10161;41.188;-8.642;2023-03-01T10:37:20;3.53;;;3.10;;
20000;SDS011;10161;41.188;-8.642;2023-03-01T10:40:00;7.10;;;3.77;;
20000;SDS011;10161;41.188;-8.642;2023-03-01T10:42:31;7.73;;;3.70;;
20000;SDS011;10161;41.188;-8.642;2023-03-01T10:45:14;6.07;;;4.80;;
20000;SDS011;10161;41.188;-8.642;2023-03-01T10:47:42;6.93;;;4.30;;
20000;SDS011;10161;41.188;-8.642;2023-03-01T10:50:17;5.53;;;4.80;;
20000;SDS011;10161;41.188;-8.642;2023-03-01T10:52:55;5.20;;;4.23;;
20000;SDS011;10161;41.188;-8.642;2023-03-01T10:55:24;7.80;;;4.70;;
20000;SDS011;10161;41.188;-8.642;2023-03-01T10:58:06;5.67;;;3.70;;
20000;SDS011;10161;41.188;-8.642;2023-03-01T11:00:37;4.80;;;3.07;;
20000;SDS011;10161;41.188;-8.642;2023-03-01T11:03:14;3.93;;;3.17;;
20000;SDS011;10161;41.188;-8.642;2023-03-01T11:08:32;3.37;;;3.07;;
20000;SDS011;10161;41.188;-8.642;2023-03-01T11:11:09;4.53;;;3.07;;
20000;SDS011;10161;41.188;-8.642;2023-03-01T11:13:47;4.70;;;3.60;;
20000;SDS011;10161;41.188;-8.642;2023-03-01T11:16:22;4.10;;;3.53;;
20000;SDS011;10161;41.188;-8.642;2023-03-01T11:18:56;4.27;;;3.70;;
20000;SDS011;10161;41.188;-8.642;2023-03-01T11:21:26;5.30;;;3.70;;
20000;SDS011;10161;41.188;-8.642;2023-03-01T11:23:55;6.53;;;4.20;;
20000;SDS011;10161;41.188;-8.642;2023-03-01T11:26:23;9.00;;;4.53;;
20000;SDS011;10161;41.188;-8.642;2023-03-01T11:28:51;7.53;;;4.40;;
20000;SDS011;10161;41.188;-8.642;2023-03-01T11:31:23;4.60;;;3.77;;
20000;SDS011;10161;41.188;-8.642;2023-03-01T11:33:53;3.77;;;3.33;;
20000;SDS011;10161;41.188;-8.642;2023-03-01T11:36:25;5.10;;;3.60;;
20000;SDS011;10161;41.188;-8.642;2023-03-01T11:38:55;6.10;;;3.53;;
20000;SDS011;10161;41.188;-8.642;2023-03-01T11:41:23;6.97;;;3.77;;
20000;SDS011;10161;41.188;-8.642;2023-03-01T11:43:53;4.37;;;3.47;;
20000;SDS011;10161;41.188;-8.642;2023-03-01T11:46:38;5.03;;;3.60;;
20000;SDS011;10161;41.188;-8.642;2023-03-01T11:49:31;4.33;;;2.73;;
20000;SDS011;10161;41.188;-8.642;2023-03-01T11:52:07;5.03;;;3.30;;
20000;SDS011;10161;41.188;-8.642;2023-03-01T11:54:44;6.37;;;3.20;;
20000;SDS011;10161;41.188;-8.642;2023-03-01T11:57:17;4.57;;;3.80;;
20000;SDS011;10161;41.188;-8.642;2023-03-01T12:00:02;3.23;;;2.73;;
20000;SDS011;10161;41.188;-8.642;2023-03-01T12:02:43;3.30;;;2.77;;
20000;SDS011;10161;41.188;-8.642;2023-03-01T12:08:37;4.83;;;3.57;;
20000;SDS011;10161;41.188;-8.642;2023-03-01T12:11:11;4.80;;;3.40;;
20000;SDS011;10161;41.188;-8.642;2023-03-01T12:14:01;4.90;;;3.43;;
20000;SDS011;10161;41.188;-8.642;2023-03-01T12:16:36;5.20;;;3.80;;
20000;SDS011;10161;41.188;-8.642;2023-03-01T12:19:26;4.50;;;4.10;;
20000;SDS011;10161;41.188;-8.642;2023-03-01T12:22:05;9.07;;;4.73;;
20000;SDS011;10161;41.188;-8.642;2023-03-01T12:27:49;4.30;;;3.50;;
20000;SDS011;10161;41.188;-8.642;2023-03-01T12:30:26;5.70;;;3.80;;
20000;SDS011;10161;41.188;-8.642;2023-03-01T12:33:02;4.70;;;3.30;;
20000;SDS011;10161;41.188;-8.642;2023-03-01T12:35:44;3.77;;;3.30;;
20000;SDS011;10161;41.188;-8.642;2023-03-01T12:38:21;5.90;;;3.17;;
20000;SDS011;10161;41.188;-8.642;2023-03-01T12:41:05;4.03;;;3.60;;
20000;SDS011;10161;41.188;-8.642;2023-03-01T12:43:47;5.00;;;4.07;;
20000;SDS011;10161;41.188;-8.642;2023-03-01T12:46:29;5.20;;;4.70;;
20000;SDS011;10161;41.188;-8.642;2023-03-01T12:49:06;4.27;;;3.47;;
20000;SDS011;10161;41.188;-8.642;2023-03-01T12:51:37;5.00;;;3.60;;
20000;SDS011;10161;41.188;-8.642;2023-03-01T12:54:07;3.97;;;3.50;;
20000;SDS011;10161;41.188;-8.642;2023-03-01T12:56:41;4.27;;;3.50;;
20000;SDS011;10161;41.188;-8.642;2023-03-01T12:59:17;4.13;;;3.47;;
20000;SDS011;10161;41.188;-8.642;2023-03-01T13:01:51;4.17;;;3.77;;
20000;SDS011;10161;41.188;-8.642;2023-03-01T13:07:34;4.10;;;3.60;;
20000;SDS011;10161;41.188;-8.642;2023-03-01T13:10:07;4.33;;;3.93;;
20000;SDS011;10161;41.188;-8.642;2023-03-01T13:12:50;4.33;;;3.60;;
20000;SDS011;10161;41.188;-8.642;2023-03-01T13:15:29;6.17;;;4.33;;
20000;SDS011;10161;41.188;-8.642;2023-03-01T13:17:59;5.10;;;4.60;;
20000;SDS011;10161;41.188;-8.642;2023-03-01T13:20:29;4.23;;;3.80;;
20000;SDS011;10161;41.188;-8.642;2023-03-01T13:23:23;8.97;;;5.40;;
20000;SDS011;10161;41.188;-8.642;2023-03-01T13:28:41;5.40;;;4.00;;
20000;SDS011;10161;41.188;-8.642;2023-03-01T13:34:41;5.87;;;4.73;;
20000;SDS011;10161;41.188;-8.642;2023-03-01T13:37:18;11.70;;;5.50;;
20000;SDS011;10161;41.188;-8.642;2023-03-01T13:39:48;9.20;;;5.40;;
20000;SDS011;10161;41.188;-8.642;2023-03-01T13:42:39;8.20;;;5.43;;
20000;SDS011;10161;41.188;-8.642;2023-03-01T13:45:21;8.93;;;5.67;;
20000;SDS011;10161;41.188;-8.642;2023-03-01T13:47:55;10.63;;;5.60;;
20000;SDS011;10161;41.188;-8.642;2023-03-01T13:50:25;5.83;;;4.70;;
20000;SDS011;10161;41.188;-8.642;2023-03-01T13:52:53;8.73;;;5.40;;
20000;SDS011;10161;41.188;-8.642;2023-03-01T13:55:36;9.63;;;5.77;;
20000;SDS011;10161;41.188;-8.642;2023-03-01T13:58:13;10.40;;;6.30;;
20000;SDS011;10161;41.188;-8.642;2023-03-01T14:00:42;7.63;;;5.67;;
20000;SDS011;10161;41.188;-8.642;2023-03-01T14:03:10;7.90;;;6.13;;
20000;SDS011;10161;41.188;-8.642;2023-03-01T14:05:39;7.67;;;5.43;;
20000;SDS011;10161;41.188;-8.642;2023-03-01T14:08:18;10.37;;;6.20;;
20000;SDS011;10161;41.188;-8.642;2023-03-01T14:10:52;6.43;;;5.80;;
20000;SDS011;10161;41.188;-8.642;2023-03-01T14:13:30;9.70;;;6.13;;
20000;SDS011;10161;41.188;-8.642;2023-03-01T14:16:10;8.07;;;6.27;;
20000;SDS011;10161;41.188;-8.642;2023-03-01T14:18:44;6.70;;;5.90;;
20000;SDS011;10161;41.188;-8.642;2023-03-01T14:21:17;10.87;;;6.30;;
20000;SDS011;10161;41.188;-8.642;2023-03-01T14:23:44;13.33;;;6.33;;
20000;SDS011;10161;41.188;-8.642;2023-03-01T14:26:14;6.57;;;5.43;;
20000;SDS011;10161;41.188;-8.642;2023-03-01T14:28:49;11.70;;;6.07;;
20000;SDS011;10161;41.188;-8.642;2023-03-01T14:31:30;6.10;;;4.60;;
20000;SDS011;10161;41.188;-8.642;2023-03-01T14:33:59;8.10;;;4.60;;
20000;SDS011;10161;41.188;-8.642;2023-03-01T14:36:28;7.40;;;4.33;;
20000;SDS011;10161;41.188;-8.642;2023-03-01T14:38:57;9.07;;;4.77;;
20000;SDS011;10161;41.188;-8.642;2023-03-01T14:41:32;8.87;;;4.37;;
20000;SDS011;10161;41.188;-8.642;2023-03-01T14:44:00;8.20;;;4.40;;
20000;SDS011;10161;41.188;-8.642;2023-03-01T14:46:30;7.83;;;4.37;;
20000;SDS011;10161;41.188;-8.642;2023-03-01T14:49:01;6.27;;;4.60;;
20000;SDS011;10161;41.188;-8.642;2023-03-01T14:51:29;8.23;;;5.10;;
20000;SDS011;10161;41.188;-8.642;2023-03-01T14:53:56;4.97;;;3.43;;
20000;SDS011;10161;41.188;-8.642;2023-03-01T14:56:23;5.87;;;3.60;;
20000;SDS011;10161;41.188;-8.642;2023-03-01T14:58:53;4.53;;;3.10;;
20000;SDS011;10161;41.188;-8.642;2023-03-01T15:01:20;8.23;;;3.47;;
20000;SDS011;10161;41.188;-8.642;2023-03-01T15:03:48;7.03;;;3.10;;
20000;SDS011;10161;41.188;-8.642;2023-03-01T15:06:16;7.90;;;3.03;;
20000;SDS011;10161;41.188;-8.642;2023-03-01T15:08:44;6.60;;;3.60;;
20000;SDS011;10161;41.188;-8.642;2023-03-01T15:11:17;4.07;;;3.40;;